First Coast — WCR9075 — position and weather

sailwx.info

Track history (hours):
 
Tides and Currents Weather Stations Pressure Air Temp Water Temp Dewpoint Dewpoint Depression Visibility Wind Speed Wind Dir Waves Ship Positions

First Coast

Owner: DANN MARINE TOWING L C, CHESAPEAKE CITY, MD. More information available from US FCC via Universal Licensing System and Coast Guard Vessel Documentation Center.

Last reported at 2016-May-05 06:33 UTC. Time now 2016-May-05 06:45 UTC.
Position N 39°48' W 075°24'.

; draft 4 m.

Type: Tug. MMSI: 367024280.

Date/timePositionNaut miles runAvg speedWind from/ knotsBaromVisibWave heightAir tempDewpointWater temp
2016-May-05 06:33N 39°48' W 075°24'1 0.6
2016-May-05 05:32N 39°48' W 075°25'0 0.0
2016-May-05 04:33N 39°48' W 075°25'0 0.0
2016-May-05 03:33N 39°48' W 075°25'0 0.0
2016-May-05 02:33N 39°48' W 075°25'0 0.0
2016-May-05 01:28N 39°48' W 075°25'0 0.0
2016-May-05 00:31N 39°48' W 075°25'0 0.0
2016-May-04 23:14N 39°48' W 075°25'0 0.2
2016-May-04 21:33N 39°48' W 075°25'7 6.7
2016-May-04 20:32N 39°51' W 075°17'5 4.7
2016-May-04 19:33N 39°55' W 075°13'0 0.0
2016-May-04 18:33N 39°55' W 075°13'0 0.0
2016-May-04 17:32N 39°55' W 075°13'0 0.0
2016-May-04 16:32N 39°55' W 075°13'0 0.0
2016-May-04 15:33N 39°55' W 075°13'0 0.0
2016-May-04 14:12N 39°55' W 075°13'0 0.8
2016-May-04 13:33N 39°54' W 075°13'1 0.7
2016-May-04 12:33N 39°54' W 075°12'0 0.0
2016-May-04 11:33N 39°54' W 075°12'0 0.0
2016-May-04 10:33N 39°54' W 075°12'0 0.0
2016-May-04 09:33N 39°54' W 075°12'0 0.0
2016-May-04 08:33N 39°54' W 075°12'3 2.9
2016-May-04 07:33N 39°54' W 075°09'0 0.0
2016-May-04 06:33N 39°54' W 075°09'0 0.0
2016-May-04 05:33N 39°54' W 075°09'0 0.0
2016-May-04 04:33N 39°54' W 075°09'0 0.0
2016-May-04 03:33N 39°54' W 075°09'0 0.0
2016-May-04 02:33N 39°54' W 075°09'0 0.0
2016-May-04 01:33N 39°54' W 075°09'0 0.0
2016-May-04 00:33N 39°54' W 075°09'0 0.0
2016-May-03 23:33N 39°54' W 075°09'0 0.0
2016-May-03 22:33N 39°54' W 075°09'0 0.0
2016-May-03 21:33N 39°54' W 075°09'0 0.0
2016-May-03 20:33N 39°54' W 075°09'0 0.0
2016-May-03 19:33N 39°54' W 075°09'0 0.0
2016-May-03 18:33N 39°54' W 075°09'0 0.0
2016-May-03 17:33N 39°54' W 075°09'0 0.0
2016-May-03 16:33N 39°54' W 075°09'0 0.0
2016-May-03 15:33N 39°54' W 075°09'0 0.0
2016-May-03 14:33N 39°54' W 075°08'0 0.0
2016-May-03 13:33N 39°54' W 075°09'0 0.0
2016-May-03 12:33N 39°54' W 075°09'0 0.0
2016-May-03 11:33N 39°54' W 075°09'0 0.0
2016-May-03 10:33N 39°54' W 075°09'0 0.0
2016-May-03 09:33N 39°54' W 075°09'0 0.0
2016-May-03 08:33N 39°54' W 075°09'0 0.0
2016-May-03 07:33N 39°54' W 075°09'0 0.0
2016-May-03 06:33N 39°54' W 075°09'0 0.0
2016-May-03 05:33N 39°54' W 075°09'0 0.0
2016-May-03 04:33N 39°54' W 075°09'0 0.0
2016-May-03 03:33N 39°54' W 075°09'0 0.0
2016-May-03 02:33N 39°54' W 075°09'0 0.0
2016-May-03 01:33N 39°54' W 075°09'0 0.0
2016-May-03 00:33N 39°54' W 075°09'0 0.0
2016-May-02 23:33N 39°54' W 075°09'0 0.0
2016-May-02 22:33N 39°54' W 075°09'0 0.0
2016-May-02 21:33N 39°54' W 075°09'0 0.0
2016-May-02 20:33N 39°54' W 075°09'0 0.0
2016-May-02 19:33N 39°54' W 075°09'0 0.0
2016-May-02 18:33N 39°54' W 075°09'0 0.0
2016-May-02 17:33N 39°54' W 075°09'2 1.9
2016-May-02 16:33N 39°56' W 075°08'4 3.7
2016-May-02 15:33N 39°53' W 075°11'1 0.7
2016-May-02 14:33N 39°53' W 075°12'0 0.0
2016-May-02 13:33N 39°53' W 075°12'0 0.0
2016-May-02 12:33N 39°53' W 075°12'0 0.0
2016-May-02 11:33N 39°53' W 075°12'0 0.0
2016-May-02 10:33N 39°53' W 075°12'0 0.0
2016-May-02 09:33N 39°53' W 075°12'0 0.0
2016-May-02 08:33N 39°53' W 075°12'0 0.0
2016-May-02 07:33N 39°53' W 075°12'0 0.0
2016-May-02 06:33N 39°53' W 075°12'0 0.0
2016-May-02 05:33N 39°53' W 075°12'0 0.0
2016-May-02 04:33N 39°53' W 075°12'0 0.0
2016-May-02 03:33N 39°53' W 075°12'0 0.0
2016-May-02 02:33N 39°53' W 075°12'0 0.0
2016-May-02 01:33N 39°53' W 075°12'0 0.0
2016-May-02 00:33N 39°53' W 075°12'0 0.0
2016-May-01 23:33N 39°53' W 075°12'0 0.0
2016-May-01 22:33N 39°53' W 075°12'0 0.0
2016-May-01 21:34N 39°53' W 075°12'0 0.0
2016-May-01 20:34N 39°53' W 075°12'0 0.0
2016-May-01 19:34N 39°53' W 075°12'5 4.7
2016-May-01 18:33N 39°51' W 075°17'9 8.8
2016-May-01 17:33N 39°47' W 075°27'5 5.2
2016-May-01 16:33N 39°43' W 075°31'0 0.0
2016-May-01 15:33N 39°43' W 075°31'0 0.0
2016-May-01 14:33N 39°43' W 075°31'0 0.0
2016-May-01 13:33N 39°43' W 075°31'0 0.0
2016-May-01 12:34N 39°43' W 075°31'0 0.0
2016-May-01 11:33N 39°43' W 075°31'0 0.0
2016-May-01 10:33N 39°43' W 075°31'1 1.0
2016-May-01 09:33N 39°44' W 075°30'7 6.5
2016-May-01 08:32N 39°49' W 075°24'10 8.9
2016-May-01 07:27N 39°52' W 075°13'6 6.4
2016-May-01 06:34N 39°57' W 075°08'3 3.2
2016-May-01 05:33N 39°59' W 075°05'0 0.0
2016-May-01 04:33N 39°59' W 075°05'0 0.0
2016-May-01 03:34N 39°59' W 075°05'0 0.0
2016-May-01 02:34N 39°59' W 075°05'4 3.9
2016-May-01 01:34N 39°56' W 075°08'0 0.1
2016-May-01 00:34N 39°56' W 075°08'3 2.9
2016-Apr-30 23:34N 39°58' W 075°06'6 6.2
2016-Apr-30 22:33N 39°53' W 075°12'2 2.4
2016-Apr-30 21:34N 39°54' W 075°09'0 0.0
2016-Apr-30 20:34N 39°54' W 075°09'0 0.0
2016-Apr-30 19:33N 39°54' W 075°09'0 0.0
2016-Apr-30 18:34N 39°54' W 075°09'0 0.0
2016-Apr-30 17:33N 39°54' W 075°09'0 0.0
2016-Apr-30 16:33N 39°54' W 075°09'0 0.0
2016-Apr-30 15:33N 39°54' W 075°09'0 0.0
2016-Apr-30 14:34N 39°54' W 075°09'0 0.0
2016-Apr-30 13:34N 39°54' W 075°09'0 0.0
2016-Apr-30 12:34N 39°54' W 075°09'0 0.0
2016-Apr-30 11:34N 39°54' W 075°09'0 0.0
2016-Apr-30 10:34N 39°54' W 075°09'0 0.0
2016-Apr-30 09:34N 39°54' W 075°09'0 0.0
2016-Apr-30 08:34N 39°54' W 075°09'0 0.0
2016-Apr-30 07:33N 39°54' W 075°09'0 0.0
2016-Apr-30 06:33N 39°54' W 075°09'0 0.0
2016-Apr-30 05:33N 39°54' W 075°09'0 0.0
2016-Apr-30 04:33N 39°54' W 075°09'0 0.0
2016-Apr-30 03:33N 39°54' W 075°09'0 0.0
2016-Apr-30 02:33N 39°54' W 075°09'0 0.0
2016-Apr-30 01:33N 39°54' W 075°09'0 0.0
2016-Apr-30 00:34N 39°54' W 075°09'0 0.0
2016-Apr-29 23:33N 39°54' W 075°09'0 0.0
2016-Apr-29 22:34N 39°54' W 075°09'2 2.4
2016-Apr-29 21:33N 39°54' W 075°12'1 1.1
2016-Apr-29 20:33N 39°53' W 075°10'2 2.1
2016-Apr-29 19:33N 39°54' W 075°08'0 0.0
2016-Apr-29 18:33N 39°54' W 075°08'0 0.0
2016-Apr-29 17:33N 39°54' W 075°08'0 0.0
2016-Apr-29 16:33N 39°54' W 075°08'0 0.2
2016-Apr-29 15:33N 39°54' W 075°08'0 0.4
2016-Apr-29 14:34N 39°54' W 075°09'0 0.0
2016-Apr-29 13:33N 39°54' W 075°09'3 2.6
2016-Apr-29 12:33N 39°53' W 075°12'1 1.0
2016-Apr-29 11:32N 39°54' W 075°12'0 0.0
2016-Apr-29 10:33N 39°54' W 075°12'0 0.1
2016-Apr-29 09:33N 39°54' W 075°12'0 0.0
2016-Apr-29 08:32N 39°54' W 075°12'3 3.2
2016-Apr-29 07:33N 39°54' W 075°08'0 0.2
2016-Apr-29 06:34N 39°54' W 075°09'0 0.0
2016-Apr-29 05:33N 39°54' W 075°09'0 0.0
2016-Apr-29 04:34N 39°54' W 075°09'0 0.0
2016-Apr-29 03:34N 39°54' W 075°09'0 0.0
2016-Apr-29 02:33N 39°54' W 075°09'0 0.0
2016-Apr-29 01:33N 39°54' W 075°09'0 0.0
2016-Apr-29 00:33N 39°54' W 075°09'0 0.0
2016-Apr-28 23:33N 39°54' W 075°09'0 0.0
2016-Apr-28 22:33N 39°54' W 075°09'0 0.0
2016-Apr-28 21:33N 39°54' W 075°09'0 0.0
2016-Apr-28 20:33N 39°54' W 075°09'0 0.0
2016-Apr-28 19:34N 39°54' W 075°09'1 1.3
2016-Apr-28 18:34N 39°55' W 075°08'0 0.0
2016-Apr-28 17:34N 39°55' W 075°08'0 0.0
2016-Apr-28 16:34N 39°55' W 075°08'0 0.0
2016-Apr-28 15:34N 39°55' W 075°08'0 0.0
2016-Apr-28 14:34N 39°55' W 075°08'2 1.5
2016-Apr-28 13:33N 39°53' W 075°08'6 5.8
2016-Apr-28 12:34N 39°51' W 075°15'0 0.0
2016-Apr-28 11:30N 39°51' W 075°15'0 0.0
2016-Apr-28 10:32N 39°51' W 075°15'4 3.8
2016-Apr-28 09:32N 39°53' W 075°11'7 7.1
2016-Apr-28 08:34N 39°58' W 075°05'0 0.2
2016-Apr-28 07:34N 39°59' W 075°05'0 0.0
2016-Apr-28 06:34N 39°59' W 075°05'0 0.0
2016-Apr-28 05:33N 39°59' W 075°05'1 0.8
2016-Apr-28 04:34N 39°59' W 075°04'4 4.2
2016-Apr-28 03:33N 39°56' W 075°08'7 7.3
2016-Apr-28 02:33N 39°51' W 075°16'  
2016-Apr-25 18:28N 39°49' W 075°24'6 6.7
2016-Apr-25 17:34N 39°44' W 075°30'2 1.8
2016-Apr-25 16:34N 39°43' W 075°31'0 0.0
2016-Apr-25 15:34N 39°43' W 075°31'0 0.0
2016-Apr-25 14:33N 39°43' W 075°31'0 0.0
2016-Apr-25 13:30N 39°43' W 075°31'0 0.5
2016-Apr-25 12:33N 39°43' W 075°31'4 4.2
2016-Apr-25 11:33N 39°47' W 075°28'8 8.1
2016-Apr-25 10:33N 39°51' W 075°19'8 8.2
2016-Apr-25 09:31N 39°53' W 075°09'7 6.9
2016-Apr-25 08:34N 39°59' W 075°04'0 0.4
2016-Apr-25 07:34N 39°59' W 075°05'1 0.6
2016-Apr-25 06:34N 39°59' W 075°05'  
Track history (hours):
 
Tides and Currents Weather Stations Pressure Air Temp Water Temp Dewpoint Dewpoint Depression Visibility Wind Speed Wind Dir Waves Ship Positions

First Coast

Owner: DANN MARINE TOWING L C, CHESAPEAKE CITY, MD. More information available from US FCC via Universal Licensing System and Coast Guard Vessel Documentation Center.

Last reported at 2016-May-05 06:33 UTC. Time now 2016-May-05 06:45 UTC.
Position N 39°48' W 075°24'.

; draft 4 m.

Type: Tug. MMSI: 367024280.

Date/timePositionNaut miles runAvg speedWind from/ knotsBaromVisibWave heightAir tempDewpointWater temp
2016-May-05 06:33N 39°48' W 075°24'1 0.6
2016-May-05 05:32N 39°48' W 075°25'0 0.0
2016-May-05 04:33N 39°48' W 075°25'0 0.0
2016-May-05 03:33N 39°48' W 075°25'0 0.0
2016-May-05 02:33N 39°48' W 075°25'0 0.0
2016-May-05 01:28N 39°48' W 075°25'0 0.0
2016-May-05 00:31N 39°48' W 075°25'0 0.0
2016-May-04 23:14N 39°48' W 075°25'0 0.2
2016-May-04 21:33N 39°48' W 075°25'7 6.7
2016-May-04 20:32N 39°51' W 075°17'5 4.7
2016-May-04 19:33N 39°55' W 075°13'0 0.0
2016-May-04 18:33N 39°55' W 075°13'0 0.0
2016-May-04 17:32N 39°55' W 075°13'0 0.0
2016-May-04 16:32N 39°55' W 075°13'0 0.0
2016-May-04 15:33N 39°55' W 075°13'0 0.0
2016-May-04 14:12N 39°55' W 075°13'0 0.8
2016-May-04 13:33N 39°54' W 075°13'1 0.7
2016-May-04 12:33N 39°54' W 075°12'0 0.0
2016-May-04 11:33N 39°54' W 075°12'0 0.0
2016-May-04 10:33N 39°54' W 075°12'0 0.0
2016-May-04 09:33N 39°54' W 075°12'0 0.0
2016-May-04 08:33N 39°54' W 075°12'3 2.9
2016-May-04 07:33N 39°54' W 075°09'0 0.0
2016-May-04 06:33N 39°54' W 075°09'0 0.0
2016-May-04 05:33N 39°54' W 075°09'0 0.0
2016-May-04 04:33N 39°54' W 075°09'0 0.0
2016-May-04 03:33N 39°54' W 075°09'0 0.0
2016-May-04 02:33N 39°54' W 075°09'0 0.0
2016-May-04 01:33N 39°54' W 075°09'0 0.0
2016-May-04 00:33N 39°54' W 075°09'0 0.0
2016-May-03 23:33N 39°54' W 075°09'0 0.0
2016-May-03 22:33N 39°54' W 075°09'0 0.0
2016-May-03 21:33N 39°54' W 075°09'0 0.0
2016-May-03 20:33N 39°54' W 075°09'0 0.0
2016-May-03 19:33N 39°54' W 075°09'0 0.0
2016-May-03 18:33N 39°54' W 075°09'0 0.0
2016-May-03 17:33N 39°54' W 075°09'0 0.0
2016-May-03 16:33N 39°54' W 075°09'0 0.0
2016-May-03 15:33N 39°54' W 075°09'0 0.0
2016-May-03 14:33N 39°54' W 075°08'0 0.0
2016-May-03 13:33N 39°54' W 075°09'0 0.0
2016-May-03 12:33N 39°54' W 075°09'0 0.0
2016-May-03 11:33N 39°54' W 075°09'0 0.0
2016-May-03 10:33N 39°54' W 075°09'0 0.0
2016-May-03 09:33N 39°54' W 075°09'0 0.0
2016-May-03 08:33N 39°54' W 075°09'0 0.0
2016-May-03 07:33N 39°54' W 075°09'0 0.0
2016-May-03 06:33N 39°54' W 075°09'0 0.0
2016-May-03 05:33N 39°54' W 075°09'0 0.0
2016-May-03 04:33N 39°54' W 075°09'0 0.0
2016-May-03 03:33N 39°54' W 075°09'0 0.0
2016-May-03 02:33N 39°54' W 075°09'0 0.0
2016-May-03 01:33N 39°54' W 075°09'0 0.0
2016-May-03 00:33N 39°54' W 075°09'0 0.0
2016-May-02 23:33N 39°54' W 075°09'0 0.0
2016-May-02 22:33N 39°54' W 075°09'0 0.0
2016-May-02 21:33N 39°54' W 075°09'0 0.0
2016-May-02 20:33N 39°54' W 075°09'0 0.0
2016-May-02 19:33N 39°54' W 075°09'0 0.0
2016-May-02 18:33N 39°54' W 075°09'0 0.0
2016-May-02 17:33N 39°54' W 075°09'2 1.9
2016-May-02 16:33N 39°56' W 075°08'4 3.7
2016-May-02 15:33N 39°53' W 075°11'1 0.7
2016-May-02 14:33N 39°53' W 075°12'0 0.0
2016-May-02 13:33N 39°53' W 075°12'0 0.0
2016-May-02 12:33N 39°53' W 075°12'0 0.0
2016-May-02 11:33N 39°53' W 075°12'0 0.0
2016-May-02 10:33N 39°53' W 075°12'0 0.0
2016-May-02 09:33N 39°53' W 075°12'0 0.0
2016-May-02 08:33N 39°53' W 075°12'0 0.0
2016-May-02 07:33N 39°53' W 075°12'0 0.0
2016-May-02 06:33N 39°53' W 075°12'0 0.0
2016-May-02 05:33N 39°53' W 075°12'0 0.0
2016-May-02 04:33N 39°53' W 075°12'0 0.0
2016-May-02 03:33N 39°53' W 075°12'0 0.0
2016-May-02 02:33N 39°53' W 075°12'0 0.0
2016-May-02 01:33N 39°53' W 075°12'0 0.0
2016-May-02 00:33N 39°53' W 075°12'0 0.0
2016-May-01 23:33N 39°53' W 075°12'0 0.0
2016-May-01 22:33N 39°53' W 075°12'0 0.0
2016-May-01 21:34N 39°53' W 075°12'0 0.0
2016-May-01 20:34N 39°53' W 075°12'0 0.0
2016-May-01 19:34N 39°53' W 075°12'5 4.7
2016-May-01 18:33N 39°51' W 075°17'9 8.8
2016-May-01 17:33N 39°47' W 075°27'5 5.2
2016-May-01 16:33N 39°43' W 075°31'0 0.0
2016-May-01 15:33N 39°43' W 075°31'0 0.0
2016-May-01 14:33N 39°43' W 075°31'0 0.0
2016-May-01 13:33N 39°43' W 075°31'0 0.0
2016-May-01 12:34N 39°43' W 075°31'0 0.0
2016-May-01 11:33N 39°43' W 075°31'0 0.0
2016-May-01 10:33N 39°43' W 075°31'1 1.0
2016-May-01 09:33N 39°44' W 075°30'7 6.5
2016-May-01 08:32N 39°49' W 075°24'10 8.9
2016-May-01 07:27N 39°52' W 075°13'6 6.4
2016-May-01 06:34N 39°57' W 075°08'3 3.2
2016-May-01 05:33N 39°59' W 075°05'0 0.0
2016-May-01 04:33N 39°59' W 075°05'0 0.0
2016-May-01 03:34N 39°59' W 075°05'0 0.0
2016-May-01 02:34N 39°59' W 075°05'4 3.9
2016-May-01 01:34N 39°56' W 075°08'0 0.1
2016-May-01 00:34N 39°56' W 075°08'3 2.9
2016-Apr-30 23:34N 39°58' W 075°06'6 6.2
2016-Apr-30 22:33N 39°53' W 075°12'2 2.4
2016-Apr-30 21:34N 39°54' W 075°09'0 0.0
2016-Apr-30 20:34N 39°54' W 075°09'0 0.0
2016-Apr-30 19:33N 39°54' W 075°09'0 0.0
2016-Apr-30 18:34N 39°54' W 075°09'0 0.0
2016-Apr-30 17:33N 39°54' W 075°09'0 0.0
2016-Apr-30 16:33N 39°54' W 075°09'0 0.0
2016-Apr-30 15:33N 39°54' W 075°09'0 0.0
2016-Apr-30 14:34N 39°54' W 075°09'0 0.0
2016-Apr-30 13:34N 39°54' W 075°09'0 0.0
2016-Apr-30 12:34N 39°54' W 075°09'0 0.0
2016-Apr-30 11:34N 39°54' W 075°09'0 0.0
2016-Apr-30 10:34N 39°54' W 075°09'0 0.0
2016-Apr-30 09:34N 39°54' W 075°09'0 0.0
2016-Apr-30 08:34N 39°54' W 075°09'0 0.0
2016-Apr-30 07:33N 39°54' W 075°09'0 0.0
2016-Apr-30 06:33N 39°54' W 075°09'0 0.0
2016-Apr-30 05:33N 39°54' W 075°09'0 0.0
2016-Apr-30 04:33N 39°54' W 075°09'0 0.0
2016-Apr-30 03:33N 39°54' W 075°09'0 0.0
2016-Apr-30 02:33N 39°54' W 075°09'0 0.0
2016-Apr-30 01:33N 39°54' W 075°09'0 0.0
2016-Apr-30 00:34N 39°54' W 075°09'0 0.0
2016-Apr-29 23:33N 39°54' W 075°09'0 0.0
2016-Apr-29 22:34N 39°54' W 075°09'2 2.4
2016-Apr-29 21:33N 39°54' W 075°12'1 1.1
2016-Apr-29 20:33N 39°53' W 075°10'2 2.1
2016-Apr-29 19:33N 39°54' W 075°08'0 0.0
2016-Apr-29 18:33N 39°54' W 075°08'0 0.0
2016-Apr-29 17:33N 39°54' W 075°08'0 0.0
2016-Apr-29 16:33N 39°54' W 075°08'0 0.2
2016-Apr-29 15:33N 39°54' W 075°08'0 0.4
2016-Apr-29 14:34N 39°54' W 075°09'0 0.0
2016-Apr-29 13:33N 39°54' W 075°09'3 2.6
2016-Apr-29 12:33N 39°53' W 075°12'1 1.0
2016-Apr-29 11:32N 39°54' W 075°12'0 0.0
2016-Apr-29 10:33N 39°54' W 075°12'0 0.1
2016-Apr-29 09:33N 39°54' W 075°12'0 0.0
2016-Apr-29 08:32N 39°54' W 075°12'3 3.2
2016-Apr-29 07:33N 39°54' W 075°08'0 0.2
2016-Apr-29 06:34N 39°54' W 075°09'0 0.0
2016-Apr-29 05:33N 39°54' W 075°09'0 0.0
2016-Apr-29 04:34N 39°54' W 075°09'0 0.0
2016-Apr-29 03:34N 39°54' W 075°09'0 0.0
2016-Apr-29 02:33N 39°54' W 075°09'0 0.0
2016-Apr-29 01:33N 39°54' W 075°09'0 0.0
2016-Apr-29 00:33N 39°54' W 075°09'0 0.0
2016-Apr-28 23:33N 39°54' W 075°09'0 0.0
2016-Apr-28 22:33N 39°54' W 075°09'0 0.0
2016-Apr-28 21:33N 39°54' W 075°09'0 0.0
2016-Apr-28 20:33N 39°54' W 075°09'0 0.0
2016-Apr-28 19:34N 39°54' W 075°09'1 1.3
2016-Apr-28 18:34N 39°55' W 075°08'0 0.0
2016-Apr-28 17:34N 39°55' W 075°08'0 0.0
2016-Apr-28 16:34N 39°55' W 075°08'0 0.0
2016-Apr-28 15:34N 39°55' W 075°08'0 0.0
2016-Apr-28 14:34N 39°55' W 075°08'2 1.5
2016-Apr-28 13:33N 39°53' W 075°08'6 5.8
2016-Apr-28 12:34N 39°51' W 075°15'0 0.0
2016-Apr-28 11:30N 39°51' W 075°15'0 0.0
2016-Apr-28 10:32N 39°51' W 075°15'4 3.8
2016-Apr-28 09:32N 39°53' W 075°11'7 7.1
2016-Apr-28 08:34N 39°58' W 075°05'0 0.2
2016-Apr-28 07:34N 39°59' W 075°05'0 0.0
2016-Apr-28 06:34N 39°59' W 075°05'0 0.0
2016-Apr-28 05:33N 39°59' W 075°05'1 0.8
2016-Apr-28 04:34N 39°59' W 075°04'4 4.2
2016-Apr-28 03:33N 39°56' W 075°08'7 7.3
2016-Apr-28 02:33N 39°51' W 075°16'  
2016-Apr-25 18:28N 39°49' W 075°24'6 6.7
2016-Apr-25 17:34N 39°44' W 075°30'2 1.8
2016-Apr-25 16:34N 39°43' W 075°31'0 0.0
2016-Apr-25 15:34N 39°43' W 075°31'0 0.0
2016-Apr-25 14:33N 39°43' W 075°31'0 0.0
2016-Apr-25 13:30N 39°43' W 075°31'0 0.5
2016-Apr-25 12:33N 39°43' W 075°31'4 4.2
2016-Apr-25 11:33N 39°47' W 075°28'8 8.1
2016-Apr-25 10:33N 39°51' W 075°19'8 8.2
2016-Apr-25 09:31N 39°53' W 075°09'7 6.9
2016-Apr-25 08:34N 39°59' W 075°04'0 0.4
2016-Apr-25 07:34N 39°59' W 075°05'1 0.6
2016-Apr-25 06:34N 39°59' W 075°05'  

Dump ship's entire track history